Spa, Belgium
Current Conditions -  °F | °C
As of 7:50 AM on Monday 24 Nov 2014 (Local Time) from EBLG Reporting Station
Broken Clouds Broken Clouds  
Wind Chill: 42°   Ceiling: 1000
Heat Index: 45°   Visibility: 4mi
Dew Point: 45°   Wind: 5mph
Humidity: 100%   Direction: 350°N
Pressure: 30.21"   Gusts: NA
Location:  50.3°N, 5.52°E
Report Text: EBLG 240650Z 35004KT 330V030 6000 FEW004 SCT007 BKN010 07/07 Q1023 TEMPO 5000 BR
Loading
Personal Weather Stations






























Interactive Weather Map New forecast layout! Learn more

10-Day Weather Forecast

Advertisements
Track Severe Weather on mobile